sensor_id;sensor_type;location;lat;lon;timestamp;P1;durP1;ratioP1;P2;durP2;ratioP2
75890;SDS011;64571;47.512;19.054;2023-04-06T00:02:24;11.55;;;5.12;;
75890;SDS011;64571;47.512;19.054;2023-04-06T00:05:28;10.30;;;5.20;;
75890;SDS011;64571;47.512;19.054;2023-04-06T00:08:32;11.52;;;5.07;;
75890;SDS011;64571;47.512;19.054;2023-04-06T00:11:35;13.67;;;4.70;;
75890;SDS011;64571;47.512;19.054;2023-04-06T00:14:37;10.25;;;5.50;;
75890;SDS011;64571;47.512;19.054;2023-04-06T00:17:40;10.88;;;5.00;;
75890;SDS011;64571;47.512;19.054;2023-04-06T00:20:43;10.75;;;5.28;;
75890;SDS011;64571;47.512;19.054;2023-04-06T00:23:45;13.23;;;5.12;;
75890;SDS011;64571;47.512;19.054;2023-04-06T00:26:48;11.20;;;4.90;;
75890;SDS011;64571;47.512;19.054;2023-04-06T00:29:50;10.70;;;5.30;;
75890;SDS011;64571;47.512;19.054;2023-04-06T00:32:53;12.07;;;5.03;;
75890;SDS011;64571;47.512;19.054;2023-04-06T00:35:56;11.50;;;5.32;;
75890;SDS011;64571;47.512;19.054;2023-04-06T00:38:58;10.93;;;4.70;;
75890;SDS011;64571;47.512;19.054;2023-04-06T00:42:01;11.37;;;5.17;;
75890;SDS011;64571;47.512;19.054;2023-04-06T00:45:15;12.20;;;4.62;;
75890;SDS011;64571;47.512;19.054;2023-04-06T00:48:18;14.23;;;5.47;;
75890;SDS011;64571;47.512;19.054;2023-04-06T00:51:21;11.75;;;4.72;;
75890;SDS011;64571;47.512;19.054;2023-04-06T00:54:24;11.40;;;4.60;;
75890;SDS011;64571;47.512;19.054;2023-04-06T00:57:27;13.50;;;5.47;;
75890;SDS011;64571;47.512;19.054;2023-04-06T01:00:30;11.35;;;5.40;;
75890;SDS011;64571;47.512;19.054;2023-04-06T01:03:34;13.38;;;5.12;;
75890;SDS011;64571;47.512;19.054;2023-04-06T01:06:38;11.23;;;5.37;;
75890;SDS011;64571;47.512;19.054;2023-04-06T01:09:41;10.82;;;5.37;;
75890;SDS011;64571;47.512;19.054;2023-04-06T01:12:47;11.17;;;5.40;;
75890;SDS011;64571;47.512;19.054;2023-04-06T01:15:52;11.48;;;5.78;;
75890;SDS011;64571;47.512;19.054;2023-04-06T01:18:56;13.85;;;6.20;;
75890;SDS011;64571;47.512;19.054;2023-04-06T01:21:58;16.87;;;7.35;;
75890;SDS011;64571;47.512;19.054;2023-04-06T01:25:03;12.18;;;6.53;;
75890;SDS011;64571;47.512;19.054;2023-04-06T01:28:06;15.90;;;6.83;;
75890;SDS011;64571;47.512;19.054;2023-04-06T01:31:09;11.65;;;6.40;;
75890;SDS011;64571;47.512;19.054;2023-04-06T01:34:12;13.25;;;6.70;;
75890;SDS011;64571;47.512;19.054;2023-04-06T01:37:15;12.30;;;6.43;;
75890;SDS011;64571;47.512;19.054;2023-04-06T01:40:18;15.02;;;6.32;;
75890;SDS011;64571;47.512;19.054;2023-04-06T01:43:21;13.33;;;5.87;;
75890;SDS011;64571;47.512;19.054;2023-04-06T01:46:28;15.23;;;5.97;;
75890;SDS011;64571;47.512;19.054;2023-04-06T01:49:31;10.48;;;5.18;;
75890;SDS011;64571;47.512;19.054;2023-04-06T01:52:34;18.73;;;6.07;;
75890;SDS011;64571;47.512;19.054;2023-04-06T01:55:37;11.75;;;5.37;;
75890;SDS011;64571;47.512;19.054;2023-04-06T01:58:43;10.77;;;5.50;;
75890;SDS011;64571;47.512;19.054;2023-04-06T02:01:46;12.70;;;5.60;;
75890;SDS011;64571;47.512;19.054;2023-04-06T02:04:49;11.25;;;5.72;;
75890;SDS011;64571;47.512;19.054;2023-04-06T02:07:52;11.88;;;5.35;;
75890;SDS011;64571;47.512;19.054;2023-04-06T02:10:57;13.52;;;5.80;;
75890;SDS011;64571;47.512;19.054;2023-04-06T02:14:00;13.83;;;6.27;;
75890;SDS011;64571;47.512;19.054;2023-04-06T02:17:03;13.62;;;5.78;;
75890;SDS011;64571;47.512;19.054;2023-04-06T02:20:06;12.73;;;5.62;;
75890;SDS011;64571;47.512;19.054;2023-04-06T02:23:09;11.73;;;5.68;;
75890;SDS011;64571;47.512;19.054;2023-04-06T02:26:11;13.65;;;5.78;;
75890;SDS011;64571;47.512;19.054;2023-04-06T02:29:14;14.40;;;6.03;;
75890;SDS011;64571;47.512;19.054;2023-04-06T02:32:17;14.82;;;6.20;;
75890;SDS011;64571;47.512;19.054;2023-04-06T02:35:20;15.10;;;6.22;;
75890;SDS011;64571;47.512;19.054;2023-04-06T02:38:25;14.02;;;5.90;;
75890;SDS011;64571;47.512;19.054;2023-04-06T02:41:27;15.25;;;5.87;;
75890;SDS011;64571;47.512;19.054;2023-04-06T02:44:31;13.00;;;5.60;;
75890;SDS011;64571;47.512;19.054;2023-04-06T02:47:33;12.73;;;5.80;;
75890;SDS011;64571;47.512;19.054;2023-04-06T02:50:36;13.68;;;6.12;;
75890;SDS011;64571;47.512;19.054;2023-04-06T02:53:39;12.30;;;5.57;;
75890;SDS011;64571;47.512;19.054;2023-04-06T02:56:43;11.35;;;5.62;;
75890;SDS011;64571;47.512;19.054;2023-04-06T02:59:45;13.00;;;6.17;;
75890;SDS011;64571;47.512;19.054;2023-04-06T03:02:49;13.73;;;6.03;;
75890;SDS011;64571;47.512;19.054;2023-04-06T03:05:52;14.45;;;6.25;;
75890;SDS011;64571;47.512;19.054;2023-04-06T03:08:58;16.50;;;6.30;;
75890;SDS011;64571;47.512;19.054;2023-04-06T03:12:00;14.90;;;6.30;;
75890;SDS011;64571;47.512;19.054;2023-04-06T03:15:05;13.13;;;5.93;;
75890;SDS011;64571;47.512;19.054;2023-04-06T03:18:09;12.02;;;6.12;;
75890;SDS011;64571;47.512;19.054;2023-04-06T03:21:13;17.70;;;6.45;;
75890;SDS011;64571;47.512;19.054;2023-04-06T03:24:19;14.23;;;6.18;;
75890;SDS011;64571;47.512;19.054;2023-04-06T03:27:22;15.15;;;6.43;;
75890;SDS011;64571;47.512;19.054;2023-04-06T03:30:25;17.17;;;6.97;;
75890;SDS011;64571;47.512;19.054;2023-04-06T03:33:29;12.90;;;6.25;;
75890;SDS011;64571;47.512;19.054;2023-04-06T03:36:33;14.75;;;6.15;;
75890;SDS011;64571;47.512;19.054;2023-04-06T03:39:37;13.25;;;6.18;;
75890;SDS011;64571;47.512;19.054;2023-04-06T03:42:39;13.15;;;6.85;;
75890;SDS011;64571;47.512;19.054;2023-04-06T03:45:42;14.30;;;7.47;;
75890;SDS011;64571;47.512;19.054;2023-04-06T03:48:48;17.12;;;7.40;;
75890;SDS011;64571;47.512;19.054;2023-04-06T03:51:52;17.87;;;6.85;;
75890;SDS011;64571;47.512;19.054;2023-04-06T03:54:55;14.63;;;7.07;;
75890;SDS011;64571;47.512;19.054;2023-04-06T03:57:57;17.83;;;7.00;;
75890;SDS011;64571;47.512;19.054;2023-04-06T04:01:00;16.80;;;6.87;;
75890;SDS011;64571;47.512;19.054;2023-04-06T04:04:02;16.27;;;7.65;;
75890;SDS011;64571;47.512;19.054;2023-04-06T04:07:05;14.90;;;6.72;;
75890;SDS011;64571;47.512;19.054;2023-04-06T04:10:09;16.80;;;7.18;;
75890;SDS011;64571;47.512;19.054;2023-04-06T04:13:11;14.55;;;7.30;;
75890;SDS011;64571;47.512;19.054;2023-04-06T04:16:14;15.87;;;7.33;;
75890;SDS011;64571;47.512;19.054;2023-04-06T04:19:17;14.98;;;7.28;;
75890;SDS011;64571;47.512;19.054;2023-04-06T04:22:19;14.05;;;6.50;;
75890;SDS011;64571;47.512;19.054;2023-04-06T04:25:22;16.48;;;7.25;;
75890;SDS011;64571;47.512;19.054;2023-04-06T04:28:25;14.80;;;7.53;;
75890;SDS011;64571;47.512;19.054;2023-04-06T04:31:28;14.30;;;6.67;;
75890;SDS011;64571;47.512;19.054;2023-04-06T04:34:32;15.77;;;6.95;;
75890;SDS011;64571;47.512;19.054;2023-04-06T04:37:35;16.83;;;7.00;;
75890;SDS011;64571;47.512;19.054;2023-04-06T04:40:38;15.55;;;7.30;;
75890;SDS011;64571;47.512;19.054;2023-04-06T04:43:41;14.10;;;7.05;;
75890;SDS011;64571;47.512;19.054;2023-04-06T04:46:45;16.03;;;7.57;;
75890;SDS011;64571;47.512;19.054;2023-04-06T04:49:48;18.52;;;7.37;;
75890;SDS011;64571;47.512;19.054;2023-04-06T04:52:52;16.37;;;6.72;;
75890;SDS011;64571;47.512;19.054;2023-04-06T04:55:55;17.60;;;7.15;;
75890;SDS011;64571;47.512;19.054;2023-04-06T04:59:01;16.65;;;6.85;;
75890;SDS011;64571;47.512;19.054;2023-04-06T05:02:04;17.13;;;6.43;;
75890;SDS011;64571;47.512;19.054;2023-04-06T05:05:08;17.85;;;7.30;;
75890;SDS011;64571;47.512;19.054;2023-04-06T05:08:11;17.48;;;7.40;;
75890;SDS011;64571;47.512;19.054;2023-04-06T05:11:15;14.77;;;7.32;;
75890;SDS011;64571;47.512;19.054;2023-04-06T05:14:18;19.67;;;7.87;;
75890;SDS011;64571;47.512;19.054;2023-04-06T05:17:21;15.13;;;6.90;;
75890;SDS011;64571;47.512;19.054;2023-04-06T05:20:24;17.45;;;7.70;;
75890;SDS011;64571;47.512;19.054;2023-04-06T05:23:27;15.18;;;7.00;;
75890;SDS011;64571;47.512;19.054;2023-04-06T05:26:31;16.92;;;7.50;;
75890;SDS011;64571;47.512;19.054;2023-04-06T05:29:35;17.92;;;6.55;;
75890;SDS011;64571;47.512;19.054;2023-04-06T05:32:37;16.47;;;7.40;;
75890;SDS011;64571;47.512;19.054;2023-04-06T05:35:40;10.98;;;6.00;;
75890;SDS011;64571;47.512;19.054;2023-04-06T05:38:43;14.30;;;7.40;;
75890;SDS011;64571;47.512;19.054;2023-04-06T05:41:48;17.42;;;7.80;;
75890;SDS011;64571;47.512;19.054;2023-04-06T05:44:52;19.17;;;7.32;;
75890;SDS011;64571;47.512;19.054;2023-04-06T05:47:55;14.67;;;6.77;;
75890;SDS011;64571;47.512;19.054;2023-04-06T05:50:58;17.98;;;8.10;;
75890;SDS011;64571;47.512;19.054;2023-04-06T05:54:03;18.02;;;8.02;;
75890;SDS011;64571;47.512;19.054;2023-04-06T05:57:05;17.20;;;8.00;;
75890;SDS011;64571;47.512;19.054;2023-04-06T06:00:08;19.98;;;9.45;;
75890;SDS011;64571;47.512;19.054;2023-04-06T06:03:14;20.00;;;8.27;;
75890;SDS011;64571;47.512;19.054;2023-04-06T06:06:20;22.62;;;9.05;;
75890;SDS011;64571;47.512;19.054;2023-04-06T06:09:23;18.52;;;8.40;;
75890;SDS011;64571;47.512;19.054;2023-04-06T06:12:27;23.40;;;9.43;;
75890;SDS011;64571;47.512;19.054;2023-04-06T06:15:29;19.42;;;8.88;;
75890;SDS011;64571;47.512;19.054;2023-04-06T06:18:32;22.63;;;9.53;;
75890;SDS011;64571;47.512;19.054;2023-04-06T06:21:34;15.50;;;8.20;;
75890;SDS011;64571;47.512;19.054;2023-04-06T06:24:38;17.58;;;8.80;;
75890;SDS011;64571;47.512;19.054;2023-04-06T06:27:41;17.70;;;8.60;;
75890;SDS011;64571;47.512;19.054;2023-04-06T06:30:44;17.65;;;9.48;;
75890;SDS011;64571;47.512;19.054;2023-04-06T06:33:49;16.37;;;8.13;;
75890;SDS011;64571;47.512;19.054;2023-04-06T06:36:53;18.12;;;7.97;;
75890;SDS011;64571;47.512;19.054;2023-04-06T06:39:57;19.40;;;8.45;;
75890;SDS011;64571;47.512;19.054;2023-04-06T06:43:00;20.10;;;8.80;;
75890;SDS011;64571;47.512;19.054;2023-04-06T06:46:05;17.17;;;6.93;;
75890;SDS011;64571;47.512;19.054;2023-04-06T06:49:08;17.13;;;7.27;;
75890;SDS011;64571;47.512;19.054;2023-04-06T06:52:11;13.02;;;6.15;;
75890;SDS011;64571;47.512;19.054;2023-04-06T06:55:14;16.23;;;6.82;;
75890;SDS011;64571;47.512;19.054;2023-04-06T06:58:18;16.00;;;7.10;;
75890;SDS011;64571;47.512;19.054;2023-04-06T07:01:24;15.02;;;6.65;;
75890;SDS011;64571;47.512;19.054;2023-04-06T07:04:29;15.73;;;6.50;;
75890;SDS011;64571;47.512;19.054;2023-04-06T07:07:32;9.65;;;5.03;;
75890;SDS011;64571;47.512;19.054;2023-04-06T07:10:35;14.77;;;6.22;;
75890;SDS011;64571;47.512;19.054;2023-04-06T07:13:38;14.95;;;5.82;;
75890;SDS011;64571;47.512;19.054;2023-04-06T07:16:41;10.82;;;4.37;;
75890;SDS011;64571;47.512;19.054;2023-04-06T07:19:44;13.30;;;6.27;;
75890;SDS011;64571;47.512;19.054;2023-04-06T07:22:47;12.93;;;5.85;;
75890;SDS011;64571;47.512;19.054;2023-04-06T07:25:50;17.98;;;6.55;;
75890;SDS011;64571;47.512;19.054;2023-04-06T07:28:54;18.45;;;7.57;;
75890;SDS011;64571;47.512;19.054;2023-04-06T07:31:57;13.02;;;7.05;;
75890;SDS011;64571;47.512;19.054;2023-04-06T07:35:00;16.40;;;7.40;;
75890;SDS011;64571;47.512;19.054;2023-04-06T07:38:03;16.10;;;7.55;;
75890;SDS011;64571;47.512;19.054;2023-04-06T07:41:07;16.08;;;7.65;;
75890;SDS011;64571;47.512;19.054;2023-04-06T07:44:09;13.15;;;6.55;;
75890;SDS011;64571;47.512;19.054;2023-04-06T07:47:12;13.52;;;6.47;;
75890;SDS011;64571;47.512;19.054;2023-04-06T07:50:15;14.97;;;7.20;;
75890;SDS011;64571;47.512;19.054;2023-04-06T07:53:18;15.93;;;7.30;;
75890;SDS011;64571;47.512;19.054;2023-04-06T07:56:21;17.73;;;7.55;;
75890;SDS011;64571;47.512;19.054;2023-04-06T07:59:23;17.23;;;7.87;;
75890;SDS011;64571;47.512;19.054;2023-04-06T08:02:26;15.48;;;6.97;;
75890;SDS011;64571;47.512;19.054;2023-04-06T08:05:29;16.97;;;6.83;;
75890;SDS011;64571;47.512;19.054;2023-04-06T08:08:31;13.88;;;7.55;;
75890;SDS011;64571;47.512;19.054;2023-04-06T08:11:34;13.77;;;6.72;;
75890;SDS011;64571;47.512;19.054;2023-04-06T08:14:37;16.08;;;7.15;;
75890;SDS011;64571;47.512;19.054;2023-04-06T08:17:39;10.63;;;4.43;;
75890;SDS011;64571;47.512;19.054;2023-04-06T08:20:42;12.77;;;6.70;;
75890;SDS011;64571;47.512;19.054;2023-04-06T08:23:44;11.10;;;5.35;;
75890;SDS011;64571;47.512;19.054;2023-04-06T08:26:48;14.77;;;7.65;;
75890;SDS011;64571;47.512;19.054;2023-04-06T08:29:51;17.45;;;6.82;;
75890;SDS011;64571;47.512;19.054;2023-04-06T08:32:53;14.00;;;6.20;;
75890;SDS011;64571;47.512;19.054;2023-04-06T08:35:56;14.17;;;6.60;;
75890;SDS011;64571;47.512;19.054;2023-04-06T08:38:59;15.75;;;7.47;;
75890;SDS011;64571;47.512;19.054;2023-04-06T08:42:02;16.77;;;8.25;;
75890;SDS011;64571;47.512;19.054;2023-04-06T08:45:05;18.52;;;7.37;;
75890;SDS011;64571;47.512;19.054;2023-04-06T08:48:08;17.30;;;6.95;;
75890;SDS011;64571;47.512;19.054;2023-04-06T08:51:11;15.73;;;7.67;;
75890;SDS011;64571;47.512;19.054;2023-04-06T08:54:15;13.25;;;7.15;;
75890;SDS011;64571;47.512;19.054;2023-04-06T08:57:17;16.40;;;7.40;;
75890;SDS011;64571;47.512;19.054;2023-04-06T09:00:21;11.43;;;5.00;;
75890;SDS011;64571;47.512;19.054;2023-04-06T09:03:24;12.43;;;6.12;;
75890;SDS011;64571;47.512;19.054;2023-04-06T09:06:30;12.20;;;6.73;;
75890;SDS011;64571;47.512;19.054;2023-04-06T09:09:33;15.43;;;6.47;;
75890;SDS011;64571;47.512;19.054;2023-04-06T09:12:36;13.75;;;6.43;;
75890;SDS011;64571;47.512;19.054;2023-04-06T09:15:41;15.65;;;7.70;;
75890;SDS011;64571;47.512;19.054;2023-04-06T09:18:46;14.20;;;6.95;;
75890;SDS011;64571;47.512;19.054;2023-04-06T09:21:50;14.80;;;7.20;;
75890;SDS011;64571;47.512;19.054;2023-04-06T09:25:04;16.27;;;7.75;;
75890;SDS011;64571;47.512;19.054;2023-04-06T09:28:07;15.70;;;7.75;;
75890;SDS011;64571;47.512;19.054;2023-04-06T09:31:10;12.73;;;5.70;;
75890;SDS011;64571;47.512;19.054;2023-04-06T09:34:20;11.68;;;6.07;;
75890;SDS011;64571;47.512;19.054;2023-04-06T09:37:23;14.23;;;6.90;;
75890;SDS011;64571;47.512;19.054;2023-04-06T09:40:29;18.08;;;6.72;;
75890;SDS011;64571;47.512;19.054;2023-04-06T09:43:32;12.88;;;7.75;;
75890;SDS011;64571;47.512;19.054;2023-04-06T09:46:36;13.25;;;8.18;;
75890;SDS011;64571;47.512;19.054;2023-04-06T09:50:01;12.15;;;6.97;;
75890;SDS011;64571;47.512;19.054;2023-04-06T09:53:04;12.97;;;5.67;;
75890;SDS011;64571;47.512;19.054;2023-04-06T09:56:10;13.23;;;6.57;;
75890;SDS011;64571;47.512;19.054;2023-04-06T09:59:20;12.70;;;6.00;;
75890;SDS011;64571;47.512;19.054;2023-04-06T10:05:42;14.13;;;7.32;;
75890;SDS011;64571;47.512;19.054;2023-04-06T10:08:49;12.80;;;6.90;;
75890;SDS011;64571;47.512;19.054;2023-04-06T10:11:54;12.10;;;7.03;;
75890;SDS011;64571;47.512;19.054;2023-04-06T10:14:57;13.18;;;6.07;;
75890;SDS011;64571;47.512;19.054;2023-04-06T10:18:00;12.25;;;6.25;;
75890;SDS011;64571;47.512;19.054;2023-04-06T10:21:06;19.35;;;8.43;;
75890;SDS011;64571;47.512;19.054;2023-04-06T10:24:12;14.70;;;6.07;;
75890;SDS011;64571;47.512;19.054;2023-04-06T10:27:15;12.15;;;6.03;;
75890;SDS011;64571;47.512;19.054;2023-04-06T10:30:18;14.20;;;5.90;;
75890;SDS011;64571;47.512;19.054;2023-04-06T10:33:20;12.65;;;6.37;;
75890;SDS011;64571;47.512;19.054;2023-04-06T10:36:24;11.43;;;6.43;;
75890;SDS011;64571;47.512;19.054;2023-04-06T10:39:34;14.93;;;6.40;;
75890;SDS011;64571;47.512;19.054;2023-04-06T10:42:37;15.90;;;7.28;;
75890;SDS011;64571;47.512;19.054;2023-04-06T10:45:40;12.27;;;5.35;;
75890;SDS011;64571;47.512;19.054;2023-04-06T10:48:45;12.93;;;6.60;;
75890;SDS011;64571;47.512;19.054;2023-04-06T10:51:52;10.85;;;5.68;;
75890;SDS011;64571;47.512;19.054;2023-04-06T10:54:56;12.30;;;6.17;;
75890;SDS011;64571;47.512;19.054;2023-04-06T10:57:59;11.98;;;5.50;;
75890;SDS011;64571;47.512;19.054;2023-04-06T11:01:02;10.80;;;5.05;;
75890;SDS011;64571;47.512;19.054;2023-04-06T11:04:05;11.23;;;5.20;;
75890;SDS011;64571;47.512;19.054;2023-04-06T11:07:10;11.98;;;5.78;;
75890;SDS011;64571;47.512;19.054;2023-04-06T11:10:20;10.63;;;5.00;;
75890;SDS011;64571;47.512;19.054;2023-04-06T11:13:24;12.07;;;5.70;;
75890;SDS011;64571;47.512;19.054;2023-04-06T11:16:27;11.32;;;5.20;;
75890;SDS011;64571;47.512;19.054;2023-04-06T11:19:32;12.05;;;5.45;;
75890;SDS011;64571;47.512;19.054;2023-04-06T11:22:35;10.48;;;4.87;;
75890;SDS011;64571;47.512;19.054;2023-04-06T11:25:38;10.37;;;5.70;;
75890;SDS011;64571;47.512;19.054;2023-04-06T11:28:42;10.73;;;5.68;;
75890;SDS011;64571;47.512;19.054;2023-04-06T11:31:46;12.35;;;5.65;;
75890;SDS011;64571;47.512;19.054;2023-04-06T11:34:50;14.60;;;5.43;;
75890;SDS011;64571;47.512;19.054;2023-04-06T11:37:53;11.85;;;5.40;;
75890;SDS011;64571;47.512;19.054;2023-04-06T11:40:55;11.60;;;6.27;;
75890;SDS011;64571;47.512;19.054;2023-04-06T11:44:00;12.68;;;6.65;;
75890;SDS011;64571;47.512;19.054;2023-04-06T11:47:05;10.27;;;5.25;;
75890;SDS011;64571;47.512;19.054;2023-04-06T11:50:10;12.73;;;5.80;;
75890;SDS011;64571;47.512;19.054;2023-04-06T11:53:14;11.77;;;6.00;;
75890;SDS011;64571;47.512;19.054;2023-04-06T11:56:27;13.07;;;6.10;;
75890;SDS011;64571;47.512;19.054;2023-04-06T11:59:31;10.98;;;6.03;;
75890;SDS011;64571;47.512;19.054;2023-04-06T12:02:39;12.32;;;5.53;;
75890;SDS011;64571;47.512;19.054;2023-04-06T12:05:43;13.05;;;6.05;;
75890;SDS011;64571;47.512;19.054;2023-04-06T12:08:46;10.57;;;5.03;;
75890;SDS011;64571;47.512;19.054;2023-04-06T12:11:49;14.53;;;6.97;;
75890;SDS011;64571;47.512;19.054;2023-04-06T12:14:52;11.88;;;5.85;;
75890;SDS011;64571;47.512;19.054;2023-04-06T12:17:55;14.45;;;6.43;;
75890;SDS011;64571;47.512;19.054;2023-04-06T12:20:57;10.90;;;5.32;;
75890;SDS011;64571;47.512;19.054;2023-04-06T12:24:00;11.77;;;5.62;;
75890;SDS011;64571;47.512;19.054;2023-04-06T12:27:03;9.97;;;5.43;;
75890;SDS011;64571;47.512;19.054;2023-04-06T12:30:12;13.82;;;6.20;;
75890;SDS011;64571;47.512;19.054;2023-04-06T12:33:15;12.02;;;6.20;;
75890;SDS011;64571;47.512;19.054;2023-04-06T12:36:18;12.93;;;6.03;;
75890;SDS011;64571;47.512;19.054;2023-04-06T12:39:22;13.60;;;6.00;;
75890;SDS011;64571;47.512;19.054;2023-04-06T12:42:25;12.77;;;5.93;;
75890;SDS011;64571;47.512;19.054;2023-04-06T12:45:30;11.40;;;5.70;;
75890;SDS011;64571;47.512;19.054;2023-04-06T12:48:34;12.27;;;5.43;;
75890;SDS011;64571;47.512;19.054;2023-04-06T12:51:37;10.50;;;5.12;;
75890;SDS011;64571;47.512;19.054;2023-04-06T12:54:41;11.12;;;5.95;;
75890;SDS011;64571;47.512;19.054;2023-04-06T12:57:44;13.70;;;6.90;;
75890;SDS011;64571;47.512;19.054;2023-04-06T13:00:48;11.95;;;5.47;;
75890;SDS011;64571;47.512;19.054;2023-04-06T13:03:51;14.10;;;6.07;;
75890;SDS011;64571;47.512;19.054;2023-04-06T13:06:54;13.02;;;6.50;;
75890;SDS011;64571;47.512;19.054;2023-04-06T13:09:56;11.60;;;6.10;;
75890;SDS011;64571;47.512;19.054;2023-04-06T13:12:59;10.23;;;5.83;;
75890;SDS011;64571;47.512;19.054;2023-04-06T13:16:03;12.30;;;5.62;;
75890;SDS011;64571;47.512;19.054;2023-04-06T13:19:08;9.98;;;5.65;;
75890;SDS011;64571;47.512;19.054;2023-04-06T13:22:10;12.10;;;5.78;;
75890;SDS011;64571;47.512;19.054;2023-04-06T13:25:13;9.43;;;3.92;;
75890;SDS011;64571;47.512;19.054;2023-04-06T13:28:16;13.17;;;5.73;;
75890;SDS011;64571;47.512;19.054;2023-04-06T13:31:19;12.23;;;5.30;;
75890;SDS011;64571;47.512;19.054;2023-04-06T13:34:21;11.57;;;5.45;;
75890;SDS011;64571;47.512;19.054;2023-04-06T13:37:24;13.62;;;5.00;;
75890;SDS011;64571;47.512;19.054;2023-04-06T13:40:26;11.12;;;5.25;;
75890;SDS011;64571;47.512;19.054;2023-04-06T13:43:29;11.37;;;5.00;;
75890;SDS011;64571;47.512;19.054;2023-04-06T13:46:32;11.12;;;5.50;;
75890;SDS011;64571;47.512;19.054;2023-04-06T13:49:35;11.30;;;5.82;;
75890;SDS011;64571;47.512;19.054;2023-04-06T13:52:37;10.88;;;5.10;;
75890;SDS011;64571;47.512;19.054;2023-04-06T13:55:40;12.50;;;5.10;;
75890;SDS011;64571;47.512;19.054;2023-04-06T13:58:43;13.93;;;5.67;;
75890;SDS011;64571;47.512;19.054;2023-04-06T14:01:47;9.18;;;4.87;;
75890;SDS011;64571;47.512;19.054;2023-04-06T14:04:50;14.18;;;4.80;;
75890;SDS011;64571;47.512;19.054;2023-04-06T14:07:52;12.18;;;5.37;;
75890;SDS011;64571;47.512;19.054;2023-04-06T14:10:55;11.23;;;4.32;;
75890;SDS011;64571;47.512;19.054;2023-04-06T14:13:58;11.67;;;5.60;;
75890;SDS011;64571;47.512;19.054;2023-04-06T14:17:01;11.38;;;5.30;;
75890;SDS011;64571;47.512;19.054;2023-04-06T14:20:05;10.73;;;5.32;;
75890;SDS011;64571;47.512;19.054;2023-04-06T14:23:08;11.07;;;5.43;;
75890;SDS011;64571;47.512;19.054;2023-04-06T14:26:11;11.45;;;5.15;;
75890;SDS011;64571;47.512;19.054;2023-04-06T14:29:15;11.33;;;4.37;;
75890;SDS011;64571;47.512;19.054;2023-04-06T14:32:17;10.90;;;4.80;;
75890;SDS011;64571;47.512;19.054;2023-04-06T14:35:22;10.85;;;4.60;;
75890;SDS011;64571;47.512;19.054;2023-04-06T14:38:25;11.43;;;5.00;;
75890;SDS011;64571;47.512;19.054;2023-04-06T14:41:28;10.93;;;5.75;;
75890;SDS011;64571;47.512;19.054;2023-04-06T14:44:32;10.63;;;5.30;;
75890;SDS011;64571;47.512;19.054;2023-04-06T14:47:38;10.38;;;4.05;;
75890;SDS011;64571;47.512;19.054;2023-04-06T14:50:41;14.85;;;5.28;;
75890;SDS011;64571;47.512;19.054;2023-04-06T14:53:48;9.50;;;4.40;;
75890;SDS011;64571;47.512;19.054;2023-04-06T14:56:51;11.18;;;4.15;;
75890;SDS011;64571;47.512;19.054;2023-04-06T14:59:54;9.83;;;4.70;;
75890;SDS011;64571;47.512;19.054;2023-04-06T15:02:56;9.45;;;4.43;;
75890;SDS011;64571;47.512;19.054;2023-04-06T15:05:59;8.23;;;4.05;;
75890;SDS011;64571;47.512;19.054;2023-04-06T15:09:02;14.00;;;5.40;;
75890;SDS011;64571;47.512;19.054;2023-04-06T15:12:05;8.63;;;4.55;;
75890;SDS011;64571;47.512;19.054;2023-04-06T15:15:07;10.13;;;4.80;;
75890;SDS011;64571;47.512;19.054;2023-04-06T15:18:11;15.32;;;4.25;;
75890;SDS011;64571;47.512;19.054;2023-04-06T15:21:14;12.48;;;5.57;;
75890;SDS011;64571;47.512;19.054;2023-04-06T15:24:16;12.60;;;5.62;;
75890;SDS011;64571;47.512;19.054;2023-04-06T15:27:19;9.93;;;5.03;;
75890;SDS011;64571;47.512;19.054;2023-04-06T15:30:21;10.57;;;5.30;;
75890;SDS011;64571;47.512;19.054;2023-04-06T15:33:24;10.45;;;5.85;;
75890;SDS011;64571;47.512;19.054;2023-04-06T15:36:28;13.13;;;5.00;;
75890;SDS011;64571;47.512;19.054;2023-04-06T15:39:31;11.45;;;6.10;;
75890;SDS011;64571;47.512;19.054;2023-04-06T15:42:34;14.65;;;5.65;;
75890;SDS011;64571;47.512;19.054;2023-04-06T15:45:37;14.37;;;5.83;;
75890;SDS011;64571;47.512;19.054;2023-04-06T15:48:40;12.10;;;6.03;;
75890;SDS011;64571;47.512;19.054;2023-04-06T15:51:43;11.20;;;5.80;;
75890;SDS011;64571;47.512;19.054;2023-04-06T15:54:46;12.65;;;5.80;;
75890;SDS011;64571;47.512;19.054;2023-04-06T15:57:49;11.75;;;5.78;;
75890;SDS011;64571;47.512;19.054;2023-04-06T16:00:52;11.93;;;6.17;;
75890;SDS011;64571;47.512;19.054;2023-04-06T16:03:54;12.77;;;5.62;;
75890;SDS011;64571;47.512;19.054;2023-04-06T16:06:57;12.02;;;6.00;;
75890;SDS011;64571;47.512;19.054;2023-04-06T16:10:00;11.90;;;5.87;;
75890;SDS011;64571;47.512;19.054;2023-04-06T16:13:03;12.55;;;5.85;;
75890;SDS011;64571;47.512;19.054;2023-04-06T16:16:06;16.50;;;6.03;;
75890;SDS011;64571;47.512;19.054;2023-04-06T16:19:09;14.27;;;6.40;;
75890;SDS011;64571;47.512;19.054;2023-04-06T16:22:12;14.18;;;6.00;;
75890;SDS011;64571;47.512;19.054;2023-04-06T16:25:14;12.05;;;6.78;;
75890;SDS011;64571;47.512;19.054;2023-04-06T16:28:17;11.75;;;6.00;;
75890;SDS011;64571;47.512;19.054;2023-04-06T16:31:20;13.50;;;6.00;;
75890;SDS011;64571;47.512;19.054;2023-04-06T16:34:24;13.23;;;5.93;;
75890;SDS011;64571;47.512;19.054;2023-04-06T16:37:32;16.23;;;6.00;;
75890;SDS011;64571;47.512;19.054;2023-04-06T16:40:36;11.77;;;5.37;;
75890;SDS011;64571;47.512;19.054;2023-04-06T16:43:39;11.80;;;6.03;;
75890;SDS011;64571;47.512;19.054;2023-04-06T16:46:42;11.83;;;6.03;;
75890;SDS011;64571;47.512;19.054;2023-04-06T16:49:45;11.95;;;5.85;;
75890;SDS011;64571;47.512;19.054;2023-04-06T16:52:47;13.20;;;6.35;;
75890;SDS011;64571;47.512;19.054;2023-04-06T16:55:50;13.10;;;6.15;;
75890;SDS011;64571;47.512;19.054;2023-04-06T16:58:53;17.45;;;8.13;;
75890;SDS011;64571;47.512;19.054;2023-04-06T17:01:55;14.77;;;7.27;;
75890;SDS011;64571;47.512;19.054;2023-04-06T17:04:59;18.35;;;8.18;;
75890;SDS011;64571;47.512;19.054;2023-04-06T17:08:02;13.40;;;7.40;;
75890;SDS011;64571;47.512;19.054;2023-04-06T17:11:04;14.27;;;7.37;;
75890;SDS011;64571;47.512;19.054;2023-04-06T17:14:07;15.50;;;7.78;;
75890;SDS011;64571;47.512;19.054;2023-04-06T17:17:10;14.20;;;7.63;;
75890;SDS011;64571;47.512;19.054;2023-04-06T17:20:13;16.25;;;6.65;;
75890;SDS011;64571;47.512;19.054;2023-04-06T17:23:15;16.60;;;8.05;;
75890;SDS011;64571;47.512;19.054;2023-04-06T17:26:18;16.60;;;8.15;;
75890;SDS011;64571;47.512;19.054;2023-04-06T17:29:23;14.10;;;6.32;;
75890;SDS011;64571;47.512;19.054;2023-04-06T17:32:25;18.90;;;9.50;;
75890;SDS011;64571;47.512;19.054;2023-04-06T17:35:29;16.98;;;8.57;;
75890;SDS011;64571;47.512;19.054;2023-04-06T17:38:31;19.98;;;9.65;;
75890;SDS011;64571;47.512;19.054;2023-04-06T17:41:34;18.58;;;9.20;;
75890;SDS011;64571;47.512;19.054;2023-04-06T17:44:36;16.35;;;8.73;;
75890;SDS011;64571;47.512;19.054;2023-04-06T17:47:39;19.60;;;9.73;;
75890;SDS011;64571;47.512;19.054;2023-04-06T17:50:42;20.92;;;9.95;;
75890;SDS011;64571;47.512;19.054;2023-04-06T17:53:45;19.73;;;10.63;;
75890;SDS011;64571;47.512;19.054;2023-04-06T17:56:48;19.50;;;9.07;;